Relevés horaires St-Hubert (Belgique)


Relevés horaires à St-Hubert - Vendredi 27 Avr. 2018
Heure UTC1 Température [°C] Vent [km/h] Hum. [%] Pres.4 [hPa] Visi. [Km] Nébu. [octa] Préc.5 [mm] Cond.
2m. Res. Ros. Dir.2 Vit. Moy. Raf.3
23:00 10.2 9 4.3 OSO 9.3 11.1 20.4 67 1009.8(0.7/3h) 27 1/8 -- --
22:00 11.1 10.1 5.0 SSO 9.3 9.3 16.7 66 1009(0.6/3h) 45 0/8 -- --
21:00 10.8 10.5 4.1 SSO 5.6 9.3 16.7 63 1008.8(0.5/3h) 45 1/8 -- --
20:00 11.4 10.8 3.5 SSO 7.4 9.3 14.8 58 1008.7(1.0/3h) 45 0/8 -- --
19:00 11.8 11.6 3.1 SSO 5.6 9.3 16.7 55 1008.3(0.8/3h) 45 1/8 -- --
18:00 13.2 12.6 2.9 SO 9.3 9.3 66.7 50 1007.8(0.7/3h) 40 0/8 0/12h
--
17:00 13.8 13.6 2.6 SSO 7.4 9.3 16.7 47 1007.2(-0.5/3h) 40 0/8 -- --
16:00 14.8 14.7 2.5 SSO 7.4 9.3 66.7 43 1006.8(-1.2/3h) 30 0/8 -- --
15:00 15.0 15 1.2 S 7.4 9.3 59.3 39 1006.7(-1.7/3h) 30 0/8 -- --
14:00 14.4 14.3 2.4 S 7.4 9.3 59.3 44 1007.5(-1.9/3h) 30 0/8 -- --
13:00 14.0 13.8 2.3 SSE 7.4 9.3 18.5 45 1008.2(-2.4/3h) 26 0/8 -- --
12:00 12.8 12.4 0.9 SSE 7.4 11.1 18.5 44 1009(-2.5/3h) 30 0/8 0/6h
--
11:00 11.5 10.9 1.4 SSE 7.4 9.3 16.7 50 1010.3(-2.0/3h) 29 0/8 -- --
10:00 11.1 10.4 1.5 SSE 7.4 9.3 18.5 52 1011.4(-1.4/3h) 26 0/8 -- --
09:00 10.1 9.3 2.4 SSE 7.4 9.3 14.8 59 1012.3(-1.2/3h) 30 0/8 -- --
08:00 8.8 7.7 2.5 SE 7.4 7.4 13.0 65 1013(-1.2/3h) 30 0/8 -- --
07:00 7.3 6 1.9 SE 7.4 7.4 13.0 69 1013.8(-1.2/3h) 25 0/8 -- --
06:00 6.3 4.8 0.9 SE 7.4 7.4 9.3 68 1014.6(-1.7/3h) 35 0/8 0/12h
--
05:00 5.3 4.2 0.6 SE 5.6 5.6 7.4 72 1015.2(-2.0/3h) 35 0/8 -- --
04:00 4.8 3.6 0.6 SE 5.6 5.6 7.4 74 1015.8(-2.1/3h) 40 0/8 -- --
03:00 5.1 4 1.0 SE 5.6 5.6 7.4 75 1016.7(-1.7/3h) 40 0/8 -- --
02:00 3.2 3.2 0.2 SE 3.7 3.7 5.6 81 1017.9(-1.5/3h) 45 0/8 -- --
01:00 3.0 3.0 0.1 SSE 3.7 3.7 5.6 81 1018.5(-1.3/3h) 45 0/8 -- --
00:00 3.3 3.3 0.5 SSE 3.7 5.6 63.0 82 1019(-1.0/3h) 40 0/8 0/6h
0/24h
--

1 Coordinated Universal Time. Actuellement il est 12:00 locale et 10:00 UTC.

2 Le vent souffle depuis la direction indiquée vers la direction oposée.

3 Les rafales max. sont disponible 40 min après l'heure du relevé.

4 Pour les stations d'altitude (plus de 600m) le géopotentiel du niveau le plus proche de la pression obligatoire est indiqué.

5 Les stations disposant d'un diffuseur peuvent indiquer "trace". Cela signifie que des précipitations ont touchés le sol mais que la quantité est inférieure à 0.1 mm.

Récapitulatif de la journée
Température [°C] Vent [km/h] Ensoleillement4 [h] Precipitations totale5 [mm] Pression [Hpa]
Min1 Max.2 Moy.3 Max. Min Max.
2.7 15.6 8.1 66.7 0 h 0 min 0 1006.7 1019.0

1 Température minimale relevée entre 18:00 UTC la veille et 18:00 UTC le jour donné.

2 Température maximale relevée entre 06:00 UTC le jour donné et 06:00 UTC le lendemain.

3 Vent moyen de la journée basé sur les relevés horaires.

4 Ensoleillement en heures relevé entre 06:00 UTC la veille et 06:00 UTC le jour donné.

5 Précipitations totales tombées entre 06:00 UTC la jour donné et 06:00 UTC le lendemain.

Graphiques horaires